Time;durP1;ratioP1;P1;durP2;ratioP2;P2;SDS_P1;SDS_P2;PMS_P1;PMS_P2;Temp;Humidity;BMP_temperature;BMP_pressure;BME280_temperature;BME280_humidity;BME280_pressure;Samples;Min_cycle;Max_cycle;Signal;HPM_P1;HPM_P2
2021/05/14 00:00:30;;;;;;;51.45;16.40;;;8.90;99.90;;;;;;4954460;28;20043;-84
2021/05/14 00:02:56;;;;;;;48.88;15.32;;;8.90;99.90;;;;;;4953293;28;20562;-85
2021/05/14 00:05:22;;;;;;;58.22;16.95;;;9.00;99.90;;;;;;4954058;28;20037;-85
2021/05/14 00:07:48;;;;;;;57.72;17.55;;;9.00;99.90;;;;;;4954289;28;20038;-85
2021/05/14 00:10:16;;;;;;;56.83;17.02;;;9.00;99.90;;;;;;4952888;28;20031;-85
2021/05/14 00:12:42;;;;;;;54.35;17.15;;;9.00;99.90;;;;;;4950331;28;20034;-85
2021/05/14 00:15:08;;;;;;;53.80;20.13;;;9.00;99.90;;;;;;4949456;29;20035;-86
2021/05/14 00:17:34;;;;;;;54.45;18.02;;;9.00;99.90;;;;;;4952688;29;20504;-85
2021/05/14 00:20:03;;;;;;;53.88;18.73;;;9.00;99.90;;;;;;4952997;29;20038;-85
2021/05/14 00:22:28;;;;;;;56.03;18.13;;;9.00;99.90;;;;;;4954242;28;20106;-85
2021/05/14 00:24:54;;;;;;;53.78;19.77;;;9.00;99.90;;;;;;4953358;28;20042;-85
2021/05/14 00:27:19;;;;;;;75.47;20.50;;;9.00;99.90;;;;;;4953907;28;20424;-86
2021/05/14 00:29:45;;;;;;;61.90;21.17;;;8.90;99.90;;;;;;4952889;29;20471;-85
2021/05/14 00:32:11;;;;;;;65.65;20.67;;;8.90;99.90;;;;;;4951414;28;20031;-85
2021/05/14 00:34:37;;;;;;;63.75;21.02;;;8.90;99.90;;;;;;4953536;29;20037;-85
2021/05/14 00:37:02;;;;;;;63.33;19.23;;;8.90;99.90;;;;;;4953531;29;20059;-85
2021/05/14 00:39:28;;;;;;;63.20;20.48;;;8.90;99.90;;;;;;4953636;29;20058;-85
2021/05/14 00:41:53;;;;;;;59.22;19.10;;;8.90;99.90;;;;;;4952252;28;20086;-85
2021/05/14 00:44:36;;;;;;;63.45;20.67;;;8.90;99.90;;;;;;4952147;28;20030;-85
2021/05/14 00:47:07;;;;;;;78.00;20.65;;;8.90;99.90;;;;;;4949157;29;20031;-85
2021/05/14 00:49:34;;;;;;;61.13;21.33;;;8.90;99.90;;;;;;4934698;29;20028;-85
2021/05/14 00:52:00;;;;;;;61.42;19.05;;;8.90;99.90;;;;;;4934483;29;20040;-86
2021/05/14 00:54:27;;;;;;;55.47;19.33;;;8.80;99.90;;;;;;4948628;29;20032;-85
2021/05/14 00:56:53;;;;;;;65.82;18.85;;;8.90;99.90;;;;;;4963151;28;20027;-85
2021/05/14 00:59:19;;;;;;;71.07;18.30;;;8.80;99.90;;;;;;4952949;28;20388;-85
2021/05/14 01:01:44;;;;;;;56.72;17.65;;;8.90;99.90;;;;;;4952436;28;20024;-85
2021/05/14 01:04:11;;;;;;;59.80;20.20;;;8.90;99.90;;;;;;4953128;29;20035;-85
2021/05/14 01:06:36;;;;;;;54.75;16.65;;;8.90;99.90;;;;;;4951878;29;20066;-85
2021/05/14 01:09:03;;;;;;;47.50;16.17;;;8.90;99.90;;;;;;4953662;28;20031;-85
2021/05/14 01:11:29;;;;;;;75.07;18.90;;;8.90;99.90;;;;;;4951921;28;20027;-85
2021/05/14 01:13:56;;;;;;;61.70;17.85;;;8.90;99.90;;;;;;4956469;28;20027;-85
2021/05/14 01:16:25;;;;;;;41.80;16.17;;;8.90;99.90;;;;;;4953222;28;20143;-85
2021/05/14 01:18:52;;;;;;;67.88;18.08;;;8.90;99.90;;;;;;4953569;28;20036;-84
2021/05/14 01:21:18;;;;;;;83.20;18.58;;;8.90;99.90;;;;;;4952091;28;20477;-85
2021/05/14 01:23:44;;;;;;;66.45;17.95;;;8.90;99.90;;;;;;4951660;29;20182;-86
2021/05/14 01:26:15;;;;;;;62.60;16.30;;;9.00;99.90;;;;;;4952077;29;20063;-85
2021/05/14 01:28:41;;;;;;;62.90;16.70;;;8.90;99.90;;;;;;4953458;28;20480;-85
2021/05/14 01:31:07;;;;;;;72.68;16.20;;;9.00;99.90;;;;;;4952209;28;20039;-85
2021/05/14 01:33:34;;;;;;;75.28;15.75;;;9.00;99.90;;;;;;4953418;28;20115;-85
2021/05/14 01:36:01;;;;;;;58.70;15.60;;;9.00;99.90;;;;;;4952426;28;20572;-85
2021/05/14 01:38:26;;;;;;;63.40;15.60;;;8.90;99.90;;;;;;4955536;29;20407;-84
2021/05/14 01:40:52;;;;;;;55.75;15.05;;;8.90;99.90;;;;;;4955528;29;20038;-85
2021/05/14 01:43:18;;;;;;;57.13;17.70;;;9.00;99.90;;;;;;4955852;28;20073;-85
2021/05/14 01:45:44;;;;;;;72.35;18.02;;;9.00;99.90;;;;;;4955069;28;20066;-85
2021/05/14 01:48:10;;;;;;;65.35;16.88;;;9.00;99.90;;;;;;4956930;29;20023;-86
2021/05/14 01:50:36;;;;;;;77.32;17.95;;;9.00;99.90;;;;;;4955558;28;20113;-84
2021/05/14 01:53:02;;;;;;;78.00;18.38;;;9.00;99.90;;;;;;4955693;29;20567;-85
2021/05/14 01:55:28;;;;;;;82.03;19.35;;;8.90;99.90;;;;;;4956097;28;20039;-85
2021/05/14 01:57:53;;;;;;;74.95;18.58;;;9.00;99.90;;;;;;4955093;28;20582;-85
2021/05/14 02:00:20;;;;;;;92.20;19.83;;;9.00;99.90;;;;;;4955393;28;20028;-85
2021/05/14 02:02:45;;;;;;;100.20;21.02;;;9.10;99.90;;;;;;4956584;28;20087;-85
2021/05/14 02:05:11;;;;;;;99.47;21.15;;;9.00;99.90;;;;;;4954887;29;20111;-85
2021/05/14 02:07:37;;;;;;;88.00;21.10;;;9.00;99.90;;;;;;4955231;28;20523;-85
2021/05/14 02:10:03;;;;;;;97.72;21.80;;;9.00;99.90;;;;;;4955472;28;20020;-85
2021/05/14 02:12:29;;;;;;;87.05;22.27;;;9.00;99.90;;;;;;4952076;28;20571;-86
2021/05/14 02:14:55;;;;;;;82.15;22.10;;;9.10;99.90;;;;;;4951514;29;20116;-85
2021/05/14 02:17:20;;;;;;;84.22;23.75;;;9.10;99.90;;;;;;4949400;29;20114;-85
2021/05/14 02:19:46;;;;;;;74.07;20.30;;;9.10;99.90;;;;;;4955299;28;20110;-84
2021/05/14 02:22:11;;;;;;;102.13;22.60;;;9.20;99.90;;;;;;4954875;28;20027;-86
2021/05/14 02:24:37;;;;;;;85.63;22.38;;;9.20;99.90;;;;;;4954659;28;20023;-85
2021/05/14 02:27:04;;;;;;;81.10;24.25;;;9.10;99.90;;;;;;4955636;28;20028;-85
2021/05/14 02:29:33;;;;;;;87.63;24.33;;;9.20;99.90;;;;;;4954086;29;20027;-85
2021/05/14 02:32:00;;;;;;;97.68;24.90;;;9.20;99.90;;;;;;4955105;28;20039;-85
2021/05/14 02:34:25;;;;;;;96.47;27.27;;;9.20;99.90;;;;;;4955609;28;20028;-85
2021/05/14 02:36:51;;;;;;;109.47;48.92;;;9.10;99.90;;;;;;4951124;29;20044;-85
2021/05/14 02:39:17;;;;;;;89.97;29.02;;;9.10;99.90;;;;;;4935716;29;20071;-85
2021/05/14 02:41:42;;;;;;;87.93;29.42;;;9.10;99.90;;;;;;4947974;29;20042;-85
2021/05/14 02:44:08;;;;;;;112.30;30.67;;;9.10;99.90;;;;;;4953728;28;20110;-85
2021/05/14 02:46:34;;;;;;;91.60;29.55;;;9.10;99.90;;;;;;4955736;29;20031;-85
2021/05/14 02:49:00;;;;;;;98.22;30.05;;;9.10;99.90;;;;;;4954596;28;20033;-85
2021/05/14 02:51:25;;;;;;;90.55;28.58;;;9.10;99.90;;;;;;4954361;28;20126;-85
2021/05/14 02:53:51;;;;;;;90.20;27.92;;;9.10;99.90;;;;;;4955103;28;20035;-85
2021/05/14 02:56:17;;;;;;;107.13;28.77;;;9.10;99.90;;;;;;4955506;29;20485;-84
2021/05/14 02:58:43;;;;;;;88.80;28.63;;;9.10;99.90;;;;;;4955582;28;20459;-85
2021/05/14 03:01:08;;;;;;;86.18;28.60;;;9.10;99.90;;;;;;4954245;28;20038;-84
2021/05/14 03:03:34;;;;;;;87.97;27.50;;;9.10;99.90;;;;;;4955513;28;20110;-84
2021/05/14 03:05:59;;;;;;;86.85;27.55;;;9.10;99.90;;;;;;4949243;28;20397;-85
2021/05/14 03:08:25;;;;;;;79.80;24.17;;;9.10;99.90;;;;;;4951299;29;20509;-85
2021/05/14 03:10:50;;;;;;;85.55;26.45;;;9.10;99.90;;;;;;4954043;28;20045;-85
2021/05/14 03:13:16;;;;;;;82.57;24.58;;;9.10;99.90;;;;;;4954157;29;20027;-85
2021/05/14 03:15:42;;;;;;;94.18;25.30;;;9.10;99.90;;;;;;4954767;29;20035;-84
2021/05/14 03:18:07;;;;;;;91.97;25.65;;;9.10;99.90;;;;;;4950662;29;20035;-85
2021/05/14 03:20:33;;;;;;;91.32;24.80;;;9.10;99.90;;;;;;4950880;28;20678;-84
2021/05/14 03:22:58;;;;;;;62.70;21.83;;;9.10;99.90;;;;;;4936319;29;20032;-85
2021/05/14 03:25:24;;;;;;;68.50;22.15;;;9.10;99.90;;;;;;4937479;29;20535;-84
2021/05/14 03:27:50;;;;;;;79.22;22.30;;;9.10;99.90;;;;;;4953964;29;20485;-85
2021/05/14 03:30:16;;;;;;;133.68;41.30;;;9.10;99.90;;;;;;4953998;29;20032;-85
2021/05/14 03:32:43;;;;;;;88.88;25.90;;;9.20;99.90;;;;;;4953831;28;20502;-85
2021/05/14 03:35:09;;;;;;;69.70;20.13;;;9.20;99.90;;;;;;4953332;28;20027;-85
2021/05/14 03:37:35;;;;;;;76.40;20.50;;;9.20;99.90;;;;;;4953520;29;20522;-85
2021/05/14 03:40:14;;;;;;;79.03;20.60;;;9.20;99.90;;;;;;4953741;28;20035;-85
2021/05/14 03:42:39;;;;;;;71.90;21.30;;;9.20;99.90;;;;;;4953706;29;20492;-85
2021/05/14 03:45:06;;;;;;;98.10;29.02;;;9.20;99.90;;;;;;4953070;28;20051;-85
2021/05/14 03:47:31;;;;;;;64.30;22.70;;;9.20;99.90;;;;;;4950102;28;20087;-85
2021/05/14 03:49:59;;;;;;;70.68;21.10;;;9.30;99.90;;;;;;4935764;29;20028;-85
2021/05/14 03:52:24;;;;;;;74.05;22.40;;;9.20;99.90;;;;;;4950383;28;20392;-85
2021/05/14 03:54:50;;;;;;;84.50;21.23;;;9.20;99.90;;;;;;4949735;29;20038;-85
2021/05/14 03:57:16;;;;;;;69.65;18.75;;;9.30;99.90;;;;;;4953123;29;20086;-85
2021/05/14 03:59:41;;;;;;;91.07;24.30;;;9.20;99.90;;;;;;4954032;28;20094;-84
2021/05/14 04:02:08;;;;;;;83.30;24.15;;;9.20;99.90;;;;;;4953235;28;20382;-85
2021/05/14 04:04:34;;;;;;;92.28;22.92;;;9.30;99.90;;;;;;4952669;28;20026;-85
2021/05/14 04:07:03;;;;;;;85.07;20.10;;;9.30;99.90;;;;;;4953487;28;20027;-85
2021/05/14 04:09:31;;;;;;;85.22;20.77;;;9.30;99.90;;;;;;4954665;28;20102;-85
2021/05/14 04:16:53;;;;;;;89.18;28.23;;;9.20;99.90;;;;;;4954353;28;20125;-85
2021/05/14 04:19:18;;;;;;;75.90;23.33;;;9.20;99.90;;;;;;4954356;29;20086;-85
2021/05/14 04:21:44;;;;;;;93.38;27.05;;;9.30;99.90;;;;;;4959380;28;20110;-85
2021/05/14 04:24:09;;;;;;;77.53;24.17;;;9.30;99.90;;;;;;4952409;29;20114;-85
2021/05/14 04:26:35;;;;;;;71.70;23.63;;;9.30;99.90;;;;;;4952635;29;20408;-85
2021/05/14 04:29:00;;;;;;;92.75;21.92;;;9.30;99.90;;;;;;4953901;28;20498;-84
2021/05/14 04:31:26;;;;;;;104.22;28.58;;;9.30;99.90;;;;;;4954268;28;20042;-85
2021/05/14 04:33:52;;;;;;;96.38;23.92;;;9.30;99.90;;;;;;4953554;29;20085;-84
2021/05/14 04:36:17;;;;;;;80.90;26.40;;;9.40;99.90;;;;;;4953781;29;20394;-85
2021/05/14 04:38:43;;;;;;;89.90;22.40;;;9.40;99.90;;;;;;4952808;28;20027;-85
2021/05/14 04:41:09;;;;;;;80.65;23.88;;;9.40;99.90;;;;;;4953659;28;20059;-84
2021/05/14 04:43:34;;;;;;;98.40;25.13;;;9.30;99.90;;;;;;4952600;28;20054;-84
2021/05/14 04:46:00;;;;;;;86.75;24.15;;;9.40;99.90;;;;;;4952988;29;20030;-85
2021/05/14 04:48:25;;;;;;;97.45;24.25;;;9.40;99.90;;;;;;4953841;29;20023;-85
2021/05/14 04:50:51;;;;;;;88.85;23.58;;;9.40;99.90;;;;;;4952616;28;20396;-85
2021/05/14 04:53:18;;;;;;;88.63;24.20;;;9.40;99.90;;;;;;4954289;29;20427;-85
2021/05/14 04:55:44;;;;;;;96.03;25.77;;;9.40;99.90;;;;;;4952838;28;20122;-85
2021/05/14 04:58:10;;;;;;;85.22;23.33;;;9.40;99.90;;;;;;4952502;29;20058;-85
2021/05/14 05:00:35;;;;;;;72.10;20.15;;;9.50;99.90;;;;;;4953583;28;20580;-84
2021/05/14 05:03:01;;;;;;;70.75;21.45;;;9.50;99.90;;;;;;4952390;28;20038;-85
2021/05/14 05:05:27;;;;;;;70.47;20.92;;;9.50;99.90;;;;;;4952682;29;20015;-84
2021/05/14 05:07:53;;;;;;;97.90;21.63;;;9.50;99.90;;;;;;4951311;28;20385;-85
2021/05/14 05:10:20;;;;;;;62.42;19.10;;;9.50;99.90;;;;;;4949707;28;20035;-83
2021/05/14 05:12:46;;;;;;;84.10;20.77;;;9.60;99.90;;;;;;4935498;29;20023;-84
2021/05/14 05:15:12;;;;;;;71.32;20.00;;;9.50;99.90;;;;;;4937678;29;20054;-84
2021/05/14 05:17:38;;;;;;;84.88;24.38;;;9.50;99.90;;;;;;4966016;28;20070;-84
2021/05/14 05:20:08;;;;;;;95.22;24.48;;;9.50;99.90;;;;;;4956169;29;20460;-85
2021/05/14 05:22:34;;;;;;;105.90;31.10;;;9.50;99.90;;;;;;4957341;28;20496;-85
2021/05/14 05:24:59;;;;;;;103.93;35.50;;;9.60;99.90;;;;;;4955363;28;20062;-84
2021/05/14 05:27:25;;;;;;;96.90;32.10;;;9.50;99.90;;;;;;4957017;28;20031;-84
2021/05/14 05:29:50;;;;;;;93.18;26.92;;;9.50;99.90;;;;;;4956049;29;20034;-85
2021/05/14 05:32:16;;;;;;;111.22;24.58;;;9.50;99.90;;;;;;4955816;28;20046;-85
2021/05/14 05:34:42;;;;;;;89.45;23.13;;;9.60;99.90;;;;;;4955217;29;20034;-84
2021/05/14 05:37:07;;;;;;;81.43;23.75;;;9.60;99.90;;;;;;4955318;28;20123;-85
2021/05/14 05:39:33;;;;;;;97.70;23.35;;;9.60;99.90;;;;;;4957135;29;20031;-84
2021/05/14 05:41:59;;;;;;;103.22;24.33;;;9.60;99.90;;;;;;4956375;28;20024;-84
2021/05/14 05:44:24;;;;;;;100.22;24.30;;;9.60;99.90;;;;;;4956430;28;20023;-84
2021/05/14 05:46:50;;;;;;;96.63;24.58;;;9.60;99.90;;;;;;4955627;28;20507;-83
2021/05/14 05:49:16;;;;;;;117.75;25.33;;;9.60;99.90;;;;;;4955705;28;20027;-85
2021/05/14 05:51:41;;;;;;;109.35;24.63;;;9.60;99.90;;;;;;4956760;28;20105;-85
2021/05/14 05:54:08;;;;;;;100.07;26.40;;;9.60;99.90;;;;;;4955945;29;20055;-83
2021/05/14 05:56:34;;;;;;;94.93;25.80;;;9.60;99.90;;;;;;4952702;29;20151;-84
2021/05/14 05:59:00;;;;;;;96.13;26.50;;;9.50;99.90;;;;;;4937690;29;20047;-84
2021/05/14 06:01:25;;;;;;;99.78;30.63;;;9.60;99.90;;;;;;4958218;28;20023;-84
2021/05/14 06:03:51;;;;;;;90.30;25.00;;;9.60;99.90;;;;;;4954066;29;20027;-84
2021/05/14 06:06:17;;;;;;;98.45;26.25;;;9.70;99.90;;;;;;4955462;28;20023;-84
2021/05/14 06:08:42;;;;;;;91.78;23.58;;;9.70;99.90;;;;;;4956389;28;20059;-84
2021/05/14 06:11:08;;;;;;;79.55;24.00;;;9.70;99.90;;;;;;4954628;28;20485;-83
2021/05/14 06:13:34;;;;;;;77.55;22.70;;;9.70;99.90;;;;;;4955021;29;20128;-83
2021/05/14 06:16:02;;;;;;;97.82;25.17;;;9.80;99.90;;;;;;4955464;28;20102;-83
2021/05/14 06:18:32;;;;;;;93.50;24.40;;;9.70;99.90;;;;;;4956302;28;20062;-83
2021/05/14 06:20:59;;;;;;;142.80;51.33;;;9.70;99.90;;;;;;4954528;28;20082;-83
2021/05/14 06:23:25;;;;;;;175.13;96.40;;;9.70;99.90;;;;;;4954323;28;20031;-83
2021/05/14 06:25:50;;;;;;;90.93;31.73;;;9.70;99.90;;;;;;4955174;29;20027;-83
2021/05/14 06:28:19;;;;;;;88.05;21.15;;;9.70;99.90;;;;;;4956000;29;20557;-84
2021/05/14 06:30:44;;;;;;;98.43;26.60;;;9.80;99.90;;;;;;4955779;28;20035;-84
2021/05/14 06:33:10;;;;;;;92.05;24.35;;;9.80;99.90;;;;;;4955822;29;20082;-84
2021/05/14 06:35:36;;;;;;;77.93;27.95;;;9.80;99.90;;;;;;4954146;29;20499;-84
2021/05/14 06:38:01;;;;;;;83.35;23.45;;;9.90;99.90;;;;;;4955800;28;20035;-83
2021/05/14 06:40:27;;;;;;;81.32;20.60;;;9.80;99.90;;;;;;4955479;29;20070;-83
2021/05/14 06:42:52;;;;;;;54.65;19.60;;;9.80;99.90;;;;;;4955350;28;20381;-83
2021/05/14 06:45:18;;;;;;;87.80;18.02;;;9.90;99.90;;;;;;4953778;29;20027;-84
2021/05/14 06:47:43;;;;;;;97.88;28.20;;;9.90;99.90;;;;;;4955702;29;20034;-84
2021/05/14 06:50:09;;;;;;;140.48;42.05;;;10.00;99.90;;;;;;4954686;29;20063;-83
2021/05/14 06:52:36;;;;;;;105.97;30.85;;;10.00;99.90;;;;;;4955289;29;20027;-83
2021/05/14 06:55:07;;;;;;;133.27;47.33;;;10.00;99.90;;;;;;4953807;28;20024;-83
2021/05/14 06:57:33;;;;;;;86.50;28.05;;;10.00;99.90;;;;;;4950663;29;20122;-83
2021/05/14 06:59:59;;;;;;;94.93;30.67;;;10.00;99.90;;;;;;4936331;29;20023;-83
2021/05/14 07:02:25;;;;;;;99.18;39.05;;;10.00;99.90;;;;;;4950622;28;20555;-83
2021/05/14 07:04:50;;;;;;;83.63;29.90;;;9.90;99.90;;;;;;4948450;29;20027;-83
2021/05/14 07:07:17;;;;;;;75.82;28.45;;;10.00;99.90;;;;;;4967844;28;20062;-83
2021/05/14 07:09:43;;;;;;;63.53;21.77;;;10.00;99.90;;;;;;4953856;29;20114;-84
2021/05/14 07:12:09;;;;;;;97.15;27.80;;;10.00;99.90;;;;;;4953788;28;20027;-83
2021/05/14 07:14:35;;;;;;;90.03;32.15;;;9.90;99.90;;;;;;4968711;28;20073;-84
2021/05/14 07:17:01;;;;;;;69.45;21.73;;;9.90;99.90;;;;;;4970054;28;20058;-83
2021/05/14 07:19:27;;;;;;;83.45;21.98;;;9.90;99.90;;;;;;4969215;28;20038;-84
2021/05/14 07:21:53;;;;;;;71.28;20.98;;;9.90;99.90;;;;;;4950940;28;20102;-84
2021/05/14 07:24:19;;;;;;;58.78;17.77;;;10.00;99.90;;;;;;4949467;28;20455;-83
2021/05/14 07:26:44;;;;;;;64.57;17.13;;;10.00;99.90;;;;;;4951154;29;20039;-84
2021/05/14 07:29:10;;;;;;;75.60;18.90;;;10.10;99.90;;;;;;4949873;28;20135;-84
2021/05/14 07:31:35;;;;;;;66.15;17.60;;;10.10;99.90;;;;;;4952966;28;20050;-84
2021/05/14 07:34:01;;;;;;;87.07;18.98;;;10.10;99.90;;;;;;4951106;28;20519;-84
2021/05/14 07:36:27;;;;;;;98.35;29.45;;;10.10;99.90;;;;;;4950294;29;20027;-83
2021/05/14 07:38:54;;;;;;;68.13;16.50;;;10.20;99.90;;;;;;4948734;28;20106;-83
2021/05/14 07:41:19;;;;;;;78.15;18.13;;;10.30;99.90;;;;;;4954378;28;20503;-83
2021/05/14 07:43:45;;;;;;;59.95;17.08;;;10.30;99.90;;;;;;4968904;28;20027;-83
2021/05/14 07:46:11;;;;;;;93.05;30.38;;;10.20;99.90;;;;;;4954663;29;20038;-83
2021/05/14 07:48:36;;;;;;;96.82;40.35;;;10.20;99.90;;;;;;4953319;29;20027;-84
2021/05/14 07:51:02;;;;;;;66.63;18.27;;;10.20;99.90;;;;;;4954295;28;20038;-84
2021/05/14 07:53:28;;;;;;;82.97;22.70;;;10.30;99.90;;;;;;4954387;29;20023;-83
2021/05/14 07:55:53;;;;;;;60.85;20.27;;;10.30;99.90;;;;;;4951706;28;20122;-85
2021/05/14 07:58:20;;;;;;;59.95;17.73;;;10.30;99.90;;;;;;4949285;29;20162;-84
2021/05/14 08:00:48;;;;;;;62.28;18.77;;;10.30;99.90;;;;;;4954065;29;20034;-82
2021/05/14 08:03:14;;;;;;;75.40;28.80;;;10.30;99.90;;;;;;4949107;28;20059;-84
2021/05/14 08:05:40;;;;;;;73.57;25.00;;;10.40;99.90;;;;;;4952434;29;20031;-84
2021/05/14 08:08:12;;;;;;;110.70;47.33;;;10.50;99.90;;;;;;4954139;29;20380;-84
2021/05/14 08:10:37;;;;;;;62.03;26.48;;;10.60;99.90;;;;;;4951336;28;20034;-83
2021/05/14 08:13:03;;;;;;;66.43;22.88;;;10.50;99.90;;;;;;4952932;29;20031;-83
2021/05/14 08:15:30;;;;;;;56.83;22.38;;;10.50;99.90;;;;;;4952865;28;20035;-83
2021/05/14 08:17:55;;;;;;;67.07;18.05;;;10.50;99.90;;;;;;4952352;28;20059;-83
2021/05/14 08:20:22;;;;;;;62.90;19.77;;;10.50;99.90;;;;;;4953918;29;20039;-82
2021/05/14 08:22:49;;;;;;;59.10;24.65;;;10.50;99.90;;;;;;4954112;28;20058;-84
2021/05/14 08:25:15;;;;;;;44.53;16.92;;;10.60;99.90;;;;;;4948702;29;20031;-85
2021/05/14 08:27:41;;;;;;;61.70;19.20;;;10.50;99.90;;;;;;4935252;29;20023;-85
2021/05/14 08:30:08;;;;;;;55.35;16.30;;;10.60;99.90;;;;;;4949750;29;20082;-86
2021/05/14 08:32:34;;;;;;;56.15;14.88;;;10.60;99.90;;;;;;4950617;28;20047;-85
2021/05/14 08:34:59;;;;;;;55.78;22.88;;;10.60;99.90;;;;;;4953243;28;20038;-85
2021/05/14 08:37:25;;;;;;;60.70;19.10;;;10.70;99.90;;;;;;4952716;29;20019;-85
2021/05/14 08:39:51;;;;;;;62.70;19.45;;;10.70;99.90;;;;;;4950108;28;20039;-83
2021/05/14 08:42:16;;;;;;;63.38;16.65;;;10.80;99.90;;;;;;4937648;28;20035;-84
2021/05/14 08:44:43;;;;;;;59.47;18.13;;;10.80;99.90;;;;;;4948243;29;20085;-83
2021/05/14 08:47:11;;;;;;;51.30;21.65;;;10.90;99.90;;;;;;4947889;28;20054;-85
2021/05/14 08:49:38;;;;;;;55.00;19.10;;;10.90;99.90;;;;;;4948146;29;20074;-84
2021/05/14 08:52:06;;;;;;;61.17;18.83;;;11.00;99.90;;;;;;4948105;29;20038;-85
2021/05/14 08:54:34;;;;;;;57.53;17.10;;;11.00;99.90;;;;;;4946997;29;20038;-83
2021/05/14 08:57:00;;;;;;;41.63;16.48;;;10.90;99.90;;;;;;4939612;28;20035;-84
2021/05/14 08:59:25;;;;;;;60.55;16.40;;;11.00;99.90;;;;;;4939269;29;20059;-83
2021/05/14 09:01:51;;;;;;;47.80;16.33;;;11.00;99.90;;;;;;4948592;28;20070;-84
2021/05/14 09:04:19;;;;;;;51.78;14.25;;;11.10;99.90;;;;;;4948605;29;20031;-84
2021/05/14 09:06:45;;;;;;;46.55;14.40;;;11.10;99.90;;;;;;4945562;28;20392;-84
2021/05/14 09:09:14;;;;;;;46.65;13.95;;;11.20;99.90;;;;;;4949128;28;20413;-85
2021/05/14 09:11:43;;;;;;;48.88;20.45;;;11.20;99.90;;;;;;4944965;28;20032;-84
2021/05/14 09:14:42;;;;;;;51.58;14.85;;;11.30;99.90;;;;;;4944288;29;20078;-84
2021/05/14 09:17:12;;;;;;;38.33;12.40;;;11.30;99.90;;;;;;4940515;29;20556;-83
2021/05/14 09:19:40;;;;;;;45.35;12.93;;;11.30;99.90;;;;;;4933311;29;20032;-83
2021/05/14 09:22:25;;;;;;;45.70;15.25;;;11.40;99.90;;;;;;4940238;29;20081;-84
2021/05/14 09:25:02;;;;;;;40.10;11.93;;;11.40;99.90;;;;;;4941026;29;20047;-84
2021/05/14 09:27:36;;;;;;;40.45;14.30;;;11.40;99.90;;;;;;4948933;28;20050;-85
2021/05/14 09:30:08;;;;;;;45.80;14.40;;;11.40;99.90;;;;;;4947498;28;20037;-84
2021/05/14 09:32:35;;;;;;;48.17;15.38;;;11.30;99.90;;;;;;4947974;28;20062;-84
2021/05/14 09:35:04;;;;;;;36.28;14.23;;;11.20;99.90;;;;;;4945405;29;20550;-84
2021/05/14 09:37:30;;;;;;;49.28;13.95;;;11.20;99.90;;;;;;4948443;29;20055;-84
2021/05/14 09:40:23;;;;;;;35.60;11.10;;;11.40;99.90;;;;;;4944209;29;20077;-85
2021/05/14 09:42:57;;;;;;;41.05;13.13;;;11.40;99.90;;;;;;4942356;28;20511;-84
2021/05/14 09:45:27;;;;;;;42.38;13.20;;;11.50;99.90;;;;;;4948871;29;20031;-84
2021/05/14 09:48:14;;;;;;;50.80;13.82;;;11.40;99.90;;;;;;4948504;29;20504;-84
2021/05/14 09:50:41;;;;;;;37.88;14.52;;;11.30;99.90;;;;;;4942295;29;20127;-82
2021/05/14 09:53:18;;;;;;;50.05;13.75;;;11.20;99.90;;;;;;4945380;29;20101;-83
2021/05/14 09:55:58;;;;;;;55.85;15.85;;;11.30;99.90;;;;;;4947762;28;20094;-83
2021/05/14 09:58:26;;;;;;;55.67;14.18;;;11.40;99.90;;;;;;4946594;28;20031;-84
2021/05/14 10:00:51;;;;;;;53.92;16.20;;;11.40;99.90;;;;;;4950809;28;20026;-81
2021/05/14 10:03:25;;;;;;;71.60;17.80;;;11.40;99.90;;;;;;4951415;29;20035;-83
2021/05/14 10:05:52;;;;;;;54.22;16.70;;;11.50;99.90;;;;;;4947290;29;20023;-82
2021/05/14 10:08:39;;;;;;;59.17;18.08;;;11.50;99.90;;;;;;4955167;29;20395;-83
2021/05/14 10:11:05;;;;;;;46.88;13.27;;;11.40;99.90;;;;;;4954466;28;20113;-83
2021/05/14 10:13:40;;;;;;;45.08;11.82;;;11.70;99.90;;;;;;4954375;29;20397;-82
2021/05/14 10:16:09;;;;;;;40.83;11.18;;;11.70;99.90;;;;;;4955666;29;20023;-83
2021/05/14 10:18:50;;;;;;;45.28;13.30;;;11.80;99.90;;;;;;4952239;28;20067;-82
2021/05/14 10:21:20;;;;;;;47.30;12.77;;;12.00;99.90;;;;;;4956324;28;20019;-82
2021/05/14 10:23:49;;;;;;;60.35;12.07;;;11.80;99.90;;;;;;4953384;29;20027;-83
2021/05/14 10:26:15;;;;;;;43.30;12.80;;;12.00;99.90;;;;;;4955324;29;20050;-81
2021/05/14 10:29:09;;;;;;;44.70;11.63;;;12.30;99.90;;;;;;4954096;29;20118;-83
2021/05/14 10:31:45;;;;;;;52.80;11.77;;;12.60;99.90;;;;;;4955275;28;20066;-83
2021/05/14 10:34:35;;;;;;;49.47;10.55;;;12.90;99.90;;;;;;4953270;29;20027;-83
2021/05/14 10:37:04;;;;;;;49.92;10.65;;;13.00;99.90;;;;;;4954622;29;20023;-82
2021/05/14 10:39:38;;;;;;;45.63;11.63;;;12.90;99.90;;;;;;4955858;28;20027;-83
2021/05/14 10:42:20;;;;;;;33.03;11.32;;;12.80;99.90;;;;;;4953666;28;20039;-83
2021/05/14 10:44:58;;;;;;;36.90;9.95;;;12.50;99.90;;;;;;4953905;29;20035;-83
2021/05/14 10:47:26;;;;;;;38.50;13.57;;;12.10;99.90;;;;;;4953991;28;20516;-83
2021/05/14 10:50:00;;;;;;;44.72;11.50;;;11.90;99.90;;;;;;4948202;29;20162;-83
2021/05/14 10:52:35;;;;;;;42.70;14.10;;;11.70;99.90;;;;;;4950858;28;20087;-82
2021/05/14 10:55:30;;;;;;;43.33;12.10;;;11.40;99.90;;;;;;4945384;29;20054;-83
2021/05/14 10:58:07;;;;;;;31.38;11.45;;;11.50;99.90;;;;;;4946904;28;20046;-83
2021/05/14 11:00:49;;;;;;;38.92;12.38;;;11.50;99.90;;;;;;4950226;28;20400;-82
2021/05/14 11:03:16;;;;;;;60.60;17.20;;;11.40;99.90;;;;;;4946016;28;20043;-81
2021/05/14 11:06:09;;;;;;;41.58;13.05;;;11.40;99.90;;;;;;4949362;29;20051;-81
2021/05/14 11:08:45;;;;;;;44.97;12.55;;;11.50;99.90;;;;;;4950485;28;20169;-82
2021/05/14 11:11:32;;;;;;;39.92;14.02;;;11.40;99.90;;;;;;4950734;29;20424;-81
2021/05/14 11:14:19;;;;;;;46.05;14.13;;;11.40;99.90;;;;;;4947358;29;20205;-81
2021/05/14 11:16:53;;;;;;;36.85;10.50;;;11.40;99.90;;;;;;4951132;28;20027;-81
2021/05/14 11:19:29;;;;;;;32.38;12.20;;;11.40;99.90;;;;;;4946577;28;20388;-83
2021/05/14 11:22:10;;;;;;;41.58;13.43;;;11.30;99.90;;;;;;4952450;28;20039;-82
2021/05/14 11:24:49;;;;;;;37.75;11.65;;;11.10;99.90;;;;;;4947374;28;20031;-82
2021/05/14 11:27:22;;;;;;;44.42;10.07;;;11.10;99.90;;;;;;4951284;28;20438;-82
2021/05/14 11:29:52;;;;;;;31.02;8.63;;;11.00;99.90;;;;;;4950050;29;20023;-83
2021/05/14 11:32:30;;;;;;;38.55;9.32;;;11.00;99.90;;;;;;4949944;28;20031;-81
2021/05/14 11:35:04;;;;;;;36.67;10.55;;;10.90;99.90;;;;;;4946293;29;20031;-82
2021/05/14 11:37:53;;;;;;;38.35;12.32;;;11.00;99.90;;;;;;4946272;28;20063;-82
2021/05/14 11:40:33;;;;;;;40.60;11.18;;;10.90;99.90;;;;;;4949247;28;20031;-82
2021/05/14 11:43:17;;;;;;;;;;;;;;;;;;;;;
2021/05/14 11:45:46;;;;;;;39.22;15.13;;;10.90;99.90;;;;;;4950528;29;20484;-83
2021/05/14 11:48:20;;;;;;;23.05;9.60;;;10.80;99.90;;;;;;4948648;28;20031;-82
2021/05/14 11:50:52;;;;;;;24.90;9.18;;;10.70;99.90;;;;;;4968457;28;20034;-83
2021/05/14 11:53:19;;;;;;;34.22;9.15;;;10.70;99.90;;;;;;4953542;29;20023;-84
2021/05/14 11:55:48;;;;;;;34.97;11.27;;;10.70;99.90;;;;;;4952568;28;20114;-83
2021/05/14 11:58:19;;;;;;;36.20;10.18;;;10.60;99.90;;;;;;4969271;28;20027;-83
2021/05/14 12:00:52;;;;;;;35.58;10.10;;;10.60;99.90;;;;;;4952372;28;20031;-82
2021/05/14 12:03:19;;;;;;;38.97;9.73;;;10.60;99.90;;;;;;4949347;29;20560;-82
2021/05/14 12:05:50;;;;;;;24.83;8.00;;;10.70;99.90;;;;;;4952880;29;20023;-81
2021/05/14 12:08:20;;;;;;;41.03;11.30;;;10.60;99.90;;;;;;4954374;28;20019;-82
2021/05/14 12:10:46;;;;;;;34.78;11.88;;;10.70;99.90;;;;;;4953617;28;20037;-81
2021/05/14 12:13:13;;;;;;;31.17;11.57;;;10.50;99.90;;;;;;4953610;28;20428;-81
2021/05/14 12:15:39;;;;;;;30.10;12.82;;;10.40;99.90;;;;;;4949942;28;20050;-81
2021/05/14 12:18:05;;;;;;;38.78;13.63;;;10.40;99.90;;;;;;4952036;28;20069;-81
2021/05/14 12:20:34;;;;;;;36.03;14.90;;;10.40;99.90;;;;;;4953470;28;20031;-80
2021/05/14 12:23:05;;;;;;;49.85;17.60;;;10.40;99.90;;;;;;4949415;29;20437;-81
2021/05/14 12:25:53;;;;;;;29.50;13.38;;;10.40;99.90;;;;;;4957175;28;20027;-82
2021/05/14 12:28:40;;;;;;;40.03;13.82;;;10.30;99.90;;;;;;4953220;28;20031;-81
2021/05/14 12:31:27;;;;;;;43.42;16.33;;;10.20;99.90;;;;;;4952415;28;20058;-81
2021/05/14 12:34:00;;;;;;;42.15;16.13;;;10.20;99.90;;;;;;4951149;29;20027;-83
2021/05/14 12:36:26;;;;;;;42.42;14.43;;;10.20;99.90;;;;;;4952665;29;20054;-82
2021/05/14 12:39:01;;;;;;;41.28;16.13;;;10.30;99.90;;;;;;4952590;29;20035;-81
2021/05/14 12:41:43;;;;;;;37.15;16.20;;;10.40;99.90;;;;;;4953456;28;20031;-80
2021/05/14 12:44:22;;;;;;;49.72;15.73;;;10.20;99.90;;;;;;4952628;29;20022;-82